Time;durP1;ratioP1;P1;durP2;ratioP2;P2;SDS_P1;SDS_P2;PMS_P1;PMS_P2;Temp;Humidity;BMP_temperature;BMP_pressure;BME280_temperature;BME280_humidity;BME280_pressure;Samples;Min_cycle;Max_cycle;Signal;HPM_P1;HPM_P2
2021/08/22 00:00:10;;;;;;;17.05;8.10;;;;;;;15.78;73.13;100543.83;125851;1093;22767;-62
2021/08/22 00:03:01;;;;;;;13.13;6.40;;;;;;;15.78;73.46;100533.34;125931;1093;26591;-63
2021/08/22 00:05:33;;;;;;;17.45;7.20;;;;;;;15.77;73.38;100528.97;125905;1093;22767;-63
2021/08/22 00:08:05;;;;;;;13.00;6.70;;;;;;;15.79;73.79;100537.68;125889;1092;22844;-63
2021/08/22 00:10:38;;;;;;;14.05;6.95;;;;;;;15.79;73.57;100534.86;125956;1092;23222;-62
2021/08/22 00:13:10;;;;;;;15.00;7.70;;;;;;;15.80;73.82;100536.42;126081;1093;22800;-63
2021/08/22 00:15:44;;;;;;;13.50;6.65;;;;;;;15.79;74.18;100534.86;126054;1092;22924;-63
2021/08/22 00:18:15;;;;;;;14.65;7.40;;;;;;;15.79;74.24;100526.42;126070;1093;22815;-62
2021/08/22 00:20:47;;;;;;;15.30;7.70;;;;;;;15.79;74.27;100532.05;125998;1093;26986;-63
2021/08/22 00:23:19;;;;;;;15.55;7.40;;;;;;;15.79;74.08;100526.42;126085;1093;23803;-63
2021/08/22 00:25:52;;;;;;;14.45;6.60;;;;;;;15.80;73.99;100524.38;126022;1092;26245;-63
2021/08/22 00:28:23;;;;;;;15.30;6.95;;;;;;;15.79;74.20;100522.83;126047;1093;22764;-63
2021/08/22 00:30:55;;;;;;;16.20;7.40;;;;;;;15.81;74.48;100523.09;125968;1093;22797;-64
2021/08/22 00:33:27;;;;;;;15.65;7.85;;;;;;;15.80;74.55;100513.89;126024;1093;22794;-62
2021/08/22 00:35:59;;;;;;;14.90;6.20;;;;;;;15.81;74.20;100511.83;125820;1093;22808;-63
2021/08/22 00:38:36;;;;;;;15.40;7.30;;;;;;;15.82;74.20;100516.97;125858;1092;22791;-63
2021/08/22 00:41:08;;;;;;;16.30;7.55;;;;;;;15.83;74.76;100512.12;125986;1093;22947;-62
2021/08/22 00:43:39;;;;;;;17.50;6.90;;;;;;;15.84;74.66;100516.45;125916;1093;22738;-64
2021/08/22 00:46:12;;;;;;;15.20;7.25;;;;;;;15.83;74.94;100510.05;125899;1092;22881;-62
2021/08/22 00:48:45;;;;;;;17.70;7.35;;;;;;;15.83;74.70;100504.42;126099;1093;24471;-63
2021/08/22 00:51:17;;;;;;;14.75;7.05;;;;;;;15.84;74.50;100503.16;125736;1092;22791;-63
2021/08/22 00:53:49;;;;;;;15.00;7.50;;;;;;;15.84;75.06;100503.16;125739;1093;22773;-63
2021/08/22 00:56:22;;;;;;;13.90;7.30;;;;;;;15.84;74.80;100503.16;125910;1093;27282;-62
2021/08/22 00:58:53;;;;;;;15.23;7.50;;;;;;;15.85;74.91;100501.12;125795;1093;22950;-64
2021/08/22 01:01:26;;;;;;;15.70;8.00;;;;;;;15.86;74.61;100499.82;125785;1093;23292;-63
2021/08/22 01:04:07;;;;;;;15.55;7.50;;;;;;;15.87;74.96;100513.38;125819;1093;26338;-63
2021/08/22 01:06:49;;;;;;;16.03;7.50;;;;;;;15.86;75.30;100511.08;125835;1093;23251;-62
2021/08/22 01:09:26;;;;;;;18.15;7.80;;;;;;;15.85;74.92;100512.38;125791;1093;24261;-61
2021/08/22 01:12:04;;;;;;;17.30;7.60;;;;;;;15.84;74.92;100511.60;125919;1093;22860;-63
2021/08/22 01:14:41;;;;;;;15.30;7.70;;;;;;;15.84;75.10;100517.23;125914;1093;22902;-62
2021/08/22 01:17:13;;;;;;;17.55;8.10;;;;;;;15.82;75.18;100510.56;125878;1092;22776;-63
2021/08/22 01:19:55;;;;;;;16.35;7.60;;;;;;;15.77;75.63;100516.94;125820;1093;27220;-63
2021/08/22 01:22:29;;;;;;;17.20;8.00;;;;;;;15.73;75.38;100505.94;125919;1093;22804;-63
2021/08/22 01:25:03;;;;;;;15.70;7.70;;;;;;;15.73;75.47;100502.34;125939;1093;22797;-63
2021/08/22 01:27:37;;;;;;;14.15;7.45;;;;;;;15.71;75.23;100496.45;125966;1093;22797;-62
2021/08/22 01:30:13;;;;;;;16.00;7.20;;;;;;;15.70;75.36;100492.13;125885;1093;22797;-62
2021/08/22 01:32:45;;;;;;;14.85;7.50;;;;;;;15.69;75.25;100484.94;125910;1093;27664;-63
2021/08/22 01:35:20;;;;;;;17.35;7.85;;;;;;;15.70;75.54;100486.48;125801;1092;22731;-63
2021/08/22 01:37:54;;;;;;;17.40;8.10;;;;;;;15.70;75.42;100490.08;125846;1093;25469;-62
2021/08/22 01:40:27;;;;;;;19.30;8.40;;;;;;;15.70;75.52;100489.30;125910;1093;22721;-62
2021/08/22 01:43:02;;;;;;;17.45;7.60;;;;;;;15.66;75.75;100491.60;125905;1093;24162;-62
2021/08/22 01:45:36;;;;;;;18.43;8.27;;;;;;;15.63;75.82;100489.79;125986;1093;22770;-62
2021/08/22 01:48:09;;;;;;;17.27;7.73;;;;;;;15.62;76.24;100486.20;126040;1092;24757;-63
2021/08/22 01:50:41;;;;;;;15.90;7.70;;;;;;;15.61;75.74;100481.86;125913;1092;22800;-61
2021/08/22 01:53:13;;;;;;;16.55;7.40;;;;;;;15.60;76.15;100485.19;125904;1093;22843;-61
2021/08/22 01:55:46;;;;;;;22.25;8.60;;;;;;;15.57;75.68;100481.34;125711;1092;26257;-62
2021/08/22 01:58:18;;;;;;;15.60;7.65;;;;;;;15.56;75.90;100481.86;125898;1093;22798;-63
2021/08/22 02:00:50;;;;;;;15.23;6.80;;;;;;;15.54;75.89;100476.72;125820;1093;22938;-64
2021/08/22 02:03:31;;;;;;;17.63;7.50;;;;;;;15.52;75.79;100484.90;125906;1092;25783;-62
2021/08/22 02:06:10;;;;;;;18.00;7.43;;;;;;;15.50;75.82;100489.52;125849;1092;22844;-62
2021/08/22 02:08:43;;;;;;;17.20;8.43;;;;;;;15.43;76.15;100490.77;125967;1093;25298;-63
2021/08/22 02:11:21;;;;;;;16.15;7.55;;;;;;;15.35;75.94;100487.63;125986;1093;22875;-63
2021/08/22 02:13:55;;;;;;;16.35;7.75;;;;;;;15.33;76.24;100489.44;125881;1092;25874;-63
2021/08/22 02:16:32;;;;;;;18.35;7.85;;;;;;;15.32;76.03;100499.13;125932;1093;22790;-61
2021/08/22 02:19:04;;;;;;;15.80;7.65;;;;;;;15.30;76.17;100482.77;125993;1093;22818;-62
2021/08/22 02:21:40;;;;;;;18.50;7.85;;;;;;;15.31;76.51;100473.03;125893;1092;22751;-62
2021/08/22 02:24:12;;;;;;;14.45;6.40;;;;;;;15.30;76.23;100477.14;125974;1092;22778;-63
2021/08/22 02:26:45;;;;;;;14.45;6.60;;;;;;;15.28;76.06;100474.06;125908;1093;22821;-62
2021/08/22 02:29:18;;;;;;;14.23;7.10;;;;;;;15.26;76.24;100468.18;125864;1093;24576;-62
2021/08/22 02:31:49;;;;;;;15.30;7.00;;;;;;;15.24;76.15;100462.30;125886;1093;22787;-63
2021/08/22 02:34:21;;;;;;;15.70;8.00;;;;;;;15.25;75.93;100463.04;125835;1092;24855;-62
2021/08/22 02:36:52;;;;;;;15.67;8.10;;;;;;;15.23;76.05;100465.59;125888;1091;22751;-62
2021/08/22 02:39:24;;;;;;;18.10;8.55;;;;;;;15.21;76.26;100466.10;125897;1091;22828;-62
2021/08/22 02:41:55;;;;;;;17.70;8.30;;;;;;;15.20;76.50;100469.43;126018;1093;22847;-63
2021/08/22 02:44:27;;;;;;;15.60;8.05;;;;;;;15.20;76.36;100461.77;125819;1092;27201;-62
2021/08/22 02:46:58;;;;;;;15.40;8.15;;;;;;;15.20;76.23;100456.14;125805;1092;22858;-63
2021/08/22 02:49:30;;;;;;;17.65;8.40;;;;;;;15.19;76.31;100451.78;125867;1093;26108;-62
2021/08/22 02:52:02;;;;;;;17.07;7.87;;;;;;;15.17;76.36;100445.11;125851;1092;22774;-62
2021/08/22 02:54:34;;;;;;;15.10;7.50;;;;;;;15.16;76.07;100449.22;125841;1093;22767;-63
2021/08/22 02:57:06;;;;;;;15.80;7.85;;;;;;;15.14;75.95;100444.11;125883;1093;22840;-63
2021/08/22 02:59:37;;;;;;;17.00;7.80;;;;;;;15.13;76.44;100436.16;126001;1092;25761;-63
2021/08/22 03:02:09;;;;;;;18.55;7.85;;;;;;;15.11;76.63;100433.08;125974;1093;26251;-62
2021/08/22 03:04:41;;;;;;;14.35;6.80;;;;;;;15.08;76.19;100443.29;126003;1093;25893;-62
2021/08/22 03:07:15;;;;;;;15.15;7.70;;;;;;;15.07;76.44;100444.58;125955;1093;24887;-62
2021/08/22 03:09:47;;;;;;;15.55;8.05;;;;;;;15.03;76.40;100457.33;125889;1093;25889;-62
2021/08/22 03:12:19;;;;;;;17.25;7.55;;;;;;;14.99;76.17;100442.75;125835;1091;25948;-63
2021/08/22 03:14:51;;;;;;;17.15;8.15;;;;;;;14.95;76.57;100442.22;125872;1093;22771;-62
2021/08/22 03:17:22;;;;;;;15.90;8.10;;;;;;;14.92;76.56;100437.63;126121;1091;25761;-63
2021/08/22 03:19:55;;;;;;;14.85;7.15;;;;;;;14.89;76.33;100436.59;125864;1093;22780;-62
2021/08/22 03:22:26;;;;;;;15.90;7.10;;;;;;;14.85;76.85;100441.68;126011;1091;22801;-63
2021/08/22 03:24:58;;;;;;;19.55;8.90;;;;;;;14.84;76.68;100445.75;125876;1093;24474;-62
2021/08/22 03:27:30;;;;;;;17.07;8.23;;;;;;;14.84;76.80;100453.41;126093;1093;24455;-62
2021/08/22 03:30:04;;;;;;;15.45;8.10;;;;;;;14.80;77.09;100456.45;126015;1093;22877;-61
2021/08/22 03:32:36;;;;;;;15.55;7.90;;;;;;;14.78;76.65;100447.77;126007;1091;24419;-62
2021/08/22 03:35:08;;;;;;;18.20;9.03;;;;;;;14.76;77.10;100453.12;125938;1093;27673;-63
2021/08/22 03:37:41;;;;;;;14.80;7.60;;;;;;;14.75;76.68;100439.58;125878;1093;22853;-63
2021/08/22 03:40:14;;;;;;;16.55;7.90;;;;;;;14.74;76.87;100438.03;125853;1093;26254;-62
2021/08/22 03:42:48;;;;;;;18.35;8.25;;;;;;;14.73;77.02;100442.13;125971;1092;25986;-61
2021/08/22 03:45:23;;;;;;;15.55;8.00;;;;;;;14.69;77.17;100447.21;125916;1093;27358;-63
2021/08/22 03:47:54;;;;;;;15.10;8.10;;;;;;;14.67;77.24;100442.07;125893;1092;26511;-62
2021/08/22 03:50:25;;;;;;;16.20;7.97;;;;;;;14.65;77.33;100450.23;125937;1093;27363;-62
2021/08/22 03:52:57;;;;;;;16.60;8.40;;;;;;;14.65;77.39;100444.61;125927;1093;22938;-63
2021/08/22 03:55:28;;;;;;;17.55;8.40;;;;;;;14.65;77.08;100444.61;125861;1093;25867;-62
2021/08/22 03:58:00;;;;;;;17.03;8.43;;;;;;;14.65;77.38;100446.68;125837;1093;22781;-63
2021/08/22 04:00:32;;;;;;;15.20;8.07;;;;;;;14.65;77.36;100441.80;125769;1091;22767;-61
2021/08/22 04:03:03;;;;;;;18.50;8.75;;;;;;;14.68;77.48;100440.04;125898;1093;22787;-62
2021/08/22 04:05:35;;;;;;;16.40;8.90;;;;;;;14.67;77.56;100439.27;125895;1093;26988;-64
2021/08/22 04:08:07;;;;;;;18.00;8.95;;;;;;;14.67;77.56;100442.07;125943;1093;22794;-62
2021/08/22 04:10:48;;;;;;;17.30;8.80;;;;;;;14.67;77.65;100432.89;125842;1093;22794;-63
2021/08/22 04:13:20;;;;;;;17.55;8.30;;;;;;;14.66;77.61;100439.77;126023;1093;24424;-63
2021/08/22 04:15:52;;;;;;;16.75;8.50;;;;;;;14.66;77.68;100439.77;126062;1093;25887;-63
2021/08/22 04:18:24;;;;;;;14.95;8.10;;;;;;;14.66;77.71;100442.58;126038;1093;26282;-64
2021/08/22 04:20:56;;;;;;;15.60;7.90;;;;;;;14.66;77.61;100443.36;125860;1093;22809;-61
2021/08/22 04:23:28;;;;;;;18.30;8.80;;;;;;;14.68;77.97;100440.04;125949;1093;23181;-62
2021/08/22 04:25:59;;;;;;;19.27;9.43;;;;;;;14.69;77.65;100433.91;125984;1093;22793;-62
2021/08/22 04:28:31;;;;;;;17.35;9.10;;;;;;;14.71;77.88;100436.23;125833;1093;22832;-62
2021/08/22 04:31:02;;;;;;;17.80;9.35;;;;;;;14.74;78.31;100435.22;125918;1093;22797;-62
2021/08/22 04:33:35;;;;;;;18.45;9.60;;;;;;;14.76;78.26;100439.06;125921;1093;22784;-62
2021/08/22 04:36:07;;;;;;;16.90;9.50;;;;;;;14.80;78.50;100433.20;125820;1093;25474;-64
2021/08/22 04:38:39;;;;;;;17.60;9.50;;;;;;;14.84;78.26;100434.50;126131;1093;22805;-63
2021/08/22 04:41:16;;;;;;;18.67;9.43;;;;;;;14.88;78.55;100432.22;125852;1093;23474;-62
2021/08/22 04:43:51;;;;;;;22.15;10.20;;;;;;;14.93;78.83;100430.72;126050;1093;22783;-63
2021/08/22 04:46:25;;;;;;;19.70;9.30;;;;;;;15.00;79.17;100433.05;125895;1092;22821;-62
2021/08/22 04:48:57;;;;;;;18.90;9.65;;;;;;;15.04;78.97;100434.33;125801;1092;22767;-63
2021/08/22 04:51:29;;;;;;;21.55;10.25;;;;;;;15.09;79.13;100427.97;126006;1093;22775;-63
2021/08/22 04:54:01;;;;;;;19.75;9.85;;;;;;;15.16;79.31;100435.16;125871;1092;22800;-64
2021/08/22 04:56:33;;;;;;;22.80;10.85;;;;;;;15.21;79.08;100429.54;125892;1093;22788;-63
2021/08/22 04:59:05;;;;;;;21.53;10.57;;;;;;;15.26;79.23;100434.42;126044;1093;22771;-63
2021/08/22 05:01:37;;;;;;;22.20;10.50;;;;;;;15.31;79.02;100433.66;125905;1093;23029;-63
2021/08/22 05:04:09;;;;;;;19.90;10.10;;;;;;;15.37;79.10;100442.88;125830;1093;22822;-63
2021/08/22 05:06:40;;;;;;;21.55;10.20;;;;;;;15.41;79.12;100437.03;125903;1093;22871;-63
2021/08/22 05:09:12;;;;;;;20.95;10.95;;;;;;;15.45;79.20;100454.45;125829;1093;22746;-63
2021/08/22 05:11:43;;;;;;;19.00;9.50;;;;;;;15.50;79.01;100459.31;125968;1093;22791;-64
2021/08/22 05:14:16;;;;;;;21.30;10.20;;;;;;;15.56;79.21;100454.47;125848;1093;27345;-64
2021/08/22 05:16:48;;;;;;;18.35;9.80;;;;;;;15.62;79.40;100455.24;125738;1093;22804;-63
2021/08/22 05:19:19;;;;;;;22.03;10.20;;;;;;;15.67;79.19;100454.50;125711;1093;22800;-63
2021/08/22 05:21:51;;;;;;;17.90;9.15;;;;;;;15.73;79.00;100448.87;125809;1093;22767;-63
2021/08/22 05:24:22;;;;;;;18.00;9.95;;;;;;;15.80;79.14;100454.00;125743;1093;22710;-63
2021/08/22 05:26:54;;;;;;;22.35;10.50;;;;;;;15.86;79.37;100447.11;125808;1093;27294;-63
2021/08/22 05:29:26;;;;;;;17.30;9.40;;;;;;;15.93;79.03;100448.66;125651;1092;22857;-63
2021/08/22 05:31:57;;;;;;;18.40;9.40;;;;;;;16.01;79.05;100449.67;125765;1093;22797;-63
2021/08/22 05:34:31;;;;;;;19.07;10.10;;;;;;;16.09;79.46;100443.02;125845;1093;26280;-64
2021/08/22 05:37:03;;;;;;;18.40;8.45;;;;;;;16.18;79.08;100441.97;125706;1093;22807;-64
2021/08/22 05:39:34;;;;;;;17.17;8.77;;;;;;;16.27;79.04;100444.54;125798;1092;27204;-63
2021/08/22 05:42:07;;;;;;;21.45;9.25;;;;;;;16.35;79.06;100448.37;125739;1093;24432;-63
2021/08/22 05:44:38;;;;;;;17.95;8.70;;;;;;;16.42;78.84;100445.04;125797;1093;22794;-64
2021/08/22 05:47:11;;;;;;;18.20;8.10;;;;;;;16.51;78.73;100435.58;125730;1093;22790;-65
2021/08/22 05:49:42;;;;;;;17.25;6.95;;;;;;;16.61;78.87;100431.97;125895;1093;22932;-63
2021/08/22 05:52:15;;;;;;;17.25;8.25;;;;;;;16.69;79.04;100432.20;125791;1093;27198;-64
2021/08/22 05:54:46;;;;;;;18.00;7.85;;;;;;;16.75;78.29;100424.48;125814;1093;27680;-64
2021/08/22 05:57:17;;;;;;;14.85;7.10;;;;;;;16.82;78.13;100427.53;125711;1093;22816;-65
2021/08/22 05:59:48;;;;;;;15.85;7.30;;;;;;;16.90;78.53;100425.70;125767;1092;26258;-61
2021/08/22 06:02:20;;;;;;;16.05;7.30;;;;;;;16.98;78.59;100425.95;125910;1092;22828;-63
2021/08/22 06:04:52;;;;;;;17.25;7.90;;;;;;;17.04;78.15;100425.91;125804;1092;22803;-63
2021/08/22 06:07:23;;;;;;;17.20;7.40;;;;;;;17.09;78.28;100442.06;125877;1093;22801;-63
2021/08/22 06:09:55;;;;;;;17.60;7.30;;;;;;;17.14;78.08;100439.20;126007;1093;22770;-64
2021/08/22 06:12:27;;;;;;;15.65;6.50;;;;;;;17.19;78.12;100434.83;125687;1093;26283;-63
2021/08/22 06:14:59;;;;;;;15.60;7.10;;;;;;;17.24;77.81;100431.98;125679;1093;22769;-63
2021/08/22 06:17:31;;;;;;;16.40;7.20;;;;;;;17.27;77.35;100425.30;125895;1093;22767;-65
2021/08/22 06:20:02;;;;;;;15.65;6.90;;;;;;;17.30;77.59;100424.24;125853;1093;22819;-61
2021/08/22 06:22:37;;;;;;;21.30;7.50;;;;;;;17.34;77.69;100435.28;125722;1092;23313;-61
2021/08/22 06:25:11;;;;;;;17.50;6.80;;;;;;;17.39;77.17;100442.93;125750;1093;22741;-63
2021/08/22 06:27:44;;;;;;;19.27;7.97;;;;;;;17.46;77.47;100445.95;125833;1093;24295;-60
2021/08/22 06:30:18;;;;;;;15.00;5.95;;;;;;;17.54;77.65;100437.75;125781;1092;22768;-60
2021/08/22 06:32:49;;;;;;;17.45;6.55;;;;;;;17.65;77.41;100437.66;125939;1093;22748;-62
2021/08/22 06:35:22;;;;;;;16.47;6.60;;;;;;;17.73;77.26;100430.93;126004;1093;22759;-61
2021/08/22 06:37:53;;;;;;;13.90;5.70;;;;;;;17.82;76.87;100431.89;126316;1093;23727;-59
2021/08/22 06:40:25;;;;;;;14.15;5.75;;;;;;;17.92;76.52;100433.88;126004;1093;28525;-61
2021/08/22 06:42:56;;;;;;;14.70;6.80;;;;;;;18.00;76.39;100426.36;125952;1093;22819;-60
2021/08/22 06:45:28;;;;;;;12.50;5.70;;;;;;;18.06;76.48;100427.11;125786;1091;22770;-60
2021/08/22 06:48:00;;;;;;;12.33;5.60;;;;;;;18.14;75.80;100433.70;125771;1093;25646;-59
2021/08/22 06:50:31;;;;;;;16.60;5.90;;;;;;;18.22;75.97;100431.84;125923;1092;22773;-60
2021/08/22 06:53:05;;;;;;;11.90;4.80;;;;;;;18.30;75.68;100438.44;125897;1092;24455;-59
2021/08/22 06:55:37;;;;;;;14.50;5.10;;;;;;;18.39;75.56;100429.59;125868;1092;22765;-58
2021/08/22 06:58:08;;;;;;;13.50;4.95;;;;;;;18.48;75.41;100431.34;126217;1092;22774;-59
2021/08/22 07:00:42;;;;;;;15.13;4.93;;;;;;;18.58;75.16;100431.78;125742;1093;22853;-59
2021/08/22 07:03:17;;;;;;;10.70;4.67;;;;;;;18.66;74.92;100433.48;125671;1093;22751;-61
2021/08/22 07:05:49;;;;;;;10.20;4.80;;;;;;;18.74;74.35;100439.31;125626;1092;27118;-60
2021/08/22 07:08:20;;;;;;;13.73;4.40;;;;;;;18.83;74.32;100424.82;126185;1093;22749;-60
2021/08/22 07:10:53;;;;;;;13.03;4.60;;;;;;;18.93;74.22;100423.89;125673;1093;25833;-60
2021/08/22 07:13:27;;;;;;;11.30;4.50;;;;;;;19.01;73.74;100424.08;125690;1093;22795;-61
2021/08/22 07:15:59;;;;;;;9.63;4.25;;;;;;;19.06;73.51;100415.52;126138;1092;25468;-60
2021/08/22 07:18:32;;;;;;;13.00;4.60;;;;;;;19.11;73.42;100411.86;125976;1093;22767;-60
2021/08/22 07:21:06;;;;;;;11.03;3.80;;;;;;;19.19;73.53;100412.00;125631;1092;22771;-60
2021/08/22 07:23:43;;;;;;;12.08;4.68;;;;;;;19.26;73.02;100405.75;125709;1092;22774;-60
2021/08/22 07:26:18;;;;;;;10.85;3.98;;;;;;;19.33;73.23;100410.78;126432;1093;24457;-61
2021/08/22 07:28:51;;;;;;;11.48;4.43;;;;;;;19.41;72.47;100417.38;126282;1092;23367;-63
2021/08/22 07:31:23;;;;;;;10.75;3.88;;;;;;;19.52;72.82;100407.97;126376;1093;22798;-59
2021/08/22 07:33:55;;;;;;;9.50;2.98;;;;;;;19.62;72.75;100420.42;125828;1093;24166;-59
2021/08/22 07:36:27;;;;;;;9.33;3.23;;;;;;;19.70;72.13;100416.44;125827;1092;22770;-59
2021/08/22 07:39:01;;;;;;;11.77;4.20;;;;;;;19.80;71.51;100413.98;126027;1093;22796;-56
2021/08/22 07:41:33;;;;;;;14.73;3.57;;;;;;;19.86;71.74;100418.23;126505;1093;23053;-60
2021/08/22 07:44:06;;;;;;;11.38;3.63;;;;;;;19.93;71.63;100423.29;125878;1092;22770;-62
2021/08/22 07:46:38;;;;;;;9.25;3.13;;;;;;;20.02;71.46;100425.72;125904;1093;22934;-60
2021/08/22 07:49:10;;;;;;;9.63;3.25;;;;;;;20.16;71.34;100424.45;126067;1093;22761;-63
2021/08/22 07:51:43;;;;;;;9.68;2.80;;;;;;;20.29;71.09;100414.47;125770;1093;22819;-67
2021/08/22 07:54:16;;;;;;;10.78;3.50;;;;;;;20.39;70.41;100424.08;127212;1092;27217;-62
2021/08/22 07:56:48;;;;;;;10.28;3.30;;;;;;;20.51;70.79;100423.34;126041;1093;22804;-62
2021/08/22 07:59:20;;;;;;;8.53;2.20;;;;;;;20.63;70.06;100424.65;125951;1093;27192;-63
2021/08/22 08:01:52;;;;;;;6.55;2.33;;;;;;;20.72;68.94;100421.39;128424;1093;22800;-61
2021/08/22 08:04:24;;;;;;;7.23;2.60;;;;;;;20.82;68.87;100421.70;125900;1092;22770;-62
2021/08/22 08:06:55;;;;;;;7.75;2.55;;;;;;;20.88;68.64;100428.03;126043;1093;22770;-62
2021/08/22 08:09:27;;;;;;;7.38;2.58;;;;;;;20.95;68.67;100422.48;125883;1092;22801;-62
2021/08/22 08:12:01;;;;;;;11.18;3.25;;;;;;;21.07;68.25;100417.35;125897;1093;22771;-62
2021/08/22 08:14:32;;;;;;;8.40;2.33;;;;;;;21.17;68.28;100417.69;125902;1093;22767;-62
2021/08/22 08:17:06;;;;;;;8.45;2.43;;;;;;;21.25;68.02;100415.70;125770;1092;22797;-62
2021/08/22 08:19:38;;;;;;;13.48;3.20;;;;;;;21.33;67.93;100419.39;126033;1093;25874;-63
2021/08/22 08:22:10;;;;;;;5.90;2.20;;;;;;;21.42;67.40;100419.69;126020;1093;22770;-62
2021/08/22 08:24:42;;;;;;;8.38;2.10;;;;;;;21.55;67.23;100418.88;125935;1093;22838;-61
2021/08/22 08:27:14;;;;;;;7.03;2.50;;;;;;;21.66;67.17;100415.80;125775;1093;24377;-62
2021/08/22 08:29:45;;;;;;;9.00;2.37;;;;;;;21.77;66.73;100417.61;125819;1093;22770;-62
2021/08/22 08:32:17;;;;;;;8.28;2.68;;;;;;;21.85;66.44;100413.53;125848;1093;26736;-62
2021/08/22 08:34:49;;;;;;;6.13;1.73;;;;;;;21.95;65.62;100420.30;125916;1093;22771;-63
2021/08/22 08:37:21;;;;;;;7.00;2.83;;;;;;;22.02;65.47;100413.89;125778;1093;25563;-61
2021/08/22 08:39:54;;;;;;;10.35;2.70;;;;;;;22.09;65.61;100404.69;125852;1092;22770;-61
2021/08/22 08:42:30;;;;;;;8.58;2.23;;;;;;;22.18;65.27;100401.33;125974;1093;22796;-62
2021/08/22 08:45:02;;;;;;;10.25;2.23;;;;;;;22.30;65.12;100402.59;125810;1092;26283;-62
2021/08/22 08:47:36;;;;;;;10.60;2.10;;;;;;;22.39;64.84;100402.07;126535;1093;22800;-62
2021/08/22 08:50:10;;;;;;;7.43;2.23;;;;;;;22.51;64.10;100405.39;125838;1093;27240;-63
2021/08/22 08:52:46;;;;;;;5.80;1.80;;;;;;;22.59;63.65;100408.31;125991;1093;22819;-64
2021/08/22 08:55:21;;;;;;;8.83;2.25;;;;;;;22.68;63.55;100408.55;125954;1093;22800;-63
2021/08/22 08:57:53;;;;;;;8.13;1.87;;;;;;;22.81;63.40;100407.69;126283;1093;22745;-63
2021/08/22 09:00:26;;;;;;;6.10;1.85;;;;;;;22.93;62.93;100400.34;125931;1092;22770;-63
2021/08/22 09:02:59;;;;;;;6.70;1.80;;;;;;;23.05;62.76;100396.61;125899;1093;22771;-63
2021/08/22 09:05:42;;;;;;;8.65;2.00;;;;;;;23.18;62.16;100407.88;125878;1093;25604;-62
2021/08/22 09:08:46;;;;;;;5.90;2.00;;;;;;;23.26;61.85;100397.28;125944;1093;22781;-61
2021/08/22 09:11:55;;;;;;;7.00;2.43;;;;;;;23.38;62.11;100394.90;125841;1092;22797;-62
2021/08/22 09:15:03;;;;;;;8.30;2.15;;;;;;;23.50;61.69;100383.91;125817;1096;26009;-63
2021/08/22 09:18:21;;;;;;;8.48;2.18;;;;;;;23.63;61.33;100383.75;125899;1095;26306;-64
2021/08/22 09:21:27;;;;;;;5.55;1.88;;;;;;;23.76;60.83;100389.27;125781;1095;24415;-62
2021/08/22 09:24:31;;;;;;;6.30;1.73;;;;;;;23.82;60.33;100386.99;125607;1096;27346;-62
2021/08/22 09:27:42;;;;;;;8.03;2.03;;;;;;;23.90;60.05;100382.06;125537;1096;22813;-62
2021/08/22 09:30:55;;;;;;;7.18;2.25;;;;;;;23.97;60.15;100382.08;125584;1096;23104;-63
2021/08/22 09:34:01;;;;;;;8.45;1.90;;;;;;;24.09;59.60;100383.25;125086;1097;22820;-63
2021/08/22 09:37:06;;;;;;;7.65;2.03;;;;;;;24.20;59.53;100378.49;125068;1098;22780;-62
2021/08/22 09:40:12;;;;;;;9.18;1.80;;;;;;;24.27;58.42;100381.33;125095;1098;22762;-63
2021/08/22 09:43:26;;;;;;;5.85;1.40;;;;;;;24.32;57.94;100371.83;125299;1100;22847;-63
2021/08/22 09:46:28;;;;;;;7.08;1.50;;;;;;;24.38;57.94;100372.39;125268;1100;28449;-62
2021/08/22 09:49:31;;;;;;;5.13;1.58;;;;;;;24.45;58.12;100374.48;125092;1099;22792;-62
2021/08/22 09:52:39;;;;;;;6.05;2.05;;;;;;;24.55;58.07;100366.86;125812;1096;22783;-62
2021/08/22 09:55:45;;;;;;;5.00;1.40;;;;;;;24.64;57.37;100365.51;125481;1095;25635;-62
2021/08/22 09:58:55;;;;;;;6.10;1.60;;;;;;;24.72;57.15;100364.16;125629;1096;27294;-62
2021/08/22 10:02:05;;;;;;;4.58;1.28;;;;;;;24.86;57.44;100367.56;125510;1096;22733;-62
2021/08/22 10:04:55;;;;;;;4.93;1.50;;;;;;;24.94;55.51;100364.66;125564;1096;22803;-62
2021/08/22 10:07:49;;;;;;;5.90;1.50;;;;;;;25.02;56.49;100362.53;125474;1096;23222;-63
2021/08/22 10:10:26;;;;;;;5.48;1.33;;;;;;;25.10;56.14;100357.58;125537;1093;22864;-62
2021/08/22 10:13:10;;;;;;;3.78;1.30;;;;;;;25.21;55.64;100359.98;125818;1093;22768;-64
2021/08/22 10:15:44;;;;;;;3.90;1.10;;;;;;;25.34;54.75;100354.02;125863;1093;22790;-62
2021/08/22 10:18:23;;;;;;;5.03;1.30;;;;;;;25.40;54.89;100358.18;125824;1093;22816;-63
2021/08/22 10:21:05;;;;;;;4.03;1.27;;;;;;;25.49;55.15;100356.83;126028;1093;22805;-63
2021/08/22 10:23:57;;;;;;;3.43;1.05;;;;;;;25.57;55.10;100348.96;125765;1093;23703;-62
2021/08/22 10:26:58;;;;;;;4.75;1.18;;;;;;;25.65;53.93;100339.00;125681;1093;26437;-62
2021/08/22 10:29:33;;;;;;;6.15;1.30;;;;;;;25.68;54.48;100340.67;125662;1093;22800;-63
2021/08/22 10:32:09;;;;;;;4.07;1.23;;;;;;;25.78;53.85;100345.77;125870;1093;22767;-62
2021/08/22 10:34:45;;;;;;;4.50;1.20;;;;;;;25.88;53.67;100344.55;125866;1093;26515;-63
2021/08/22 10:37:33;;;;;;;4.20;1.10;;;;;;;26.01;53.58;100341.37;125632;1093;22797;-62
2021/08/22 10:40:35;;;;;;;4.50;1.20;;;;;;;26.09;53.23;100344.95;125753;1093;22820;-63
2021/08/22 10:43:38;;;;;;;3.65;1.35;;;;;;;26.17;52.87;100347.77;125854;1092;26245;-62
2021/08/22 10:46:11;;;;;;;5.10;1.00;;;;;;;26.21;51.92;100337.42;125628;1093;22775;-62
2021/08/22 10:48:56;;;;;;;4.28;1.23;;;;;;;26.27;52.13;100342.89;126068;1093;23604;-64
2021/08/22 10:51:28;;;;;;;5.15;1.20;;;;;;;26.30;52.42;100338.84;125857;1093;22867;-62
2021/08/22 10:54:24;;;;;;;5.35;1.20;;;;;;;26.33;51.64;100338.45;125908;1093;22773;-62
2021/08/22 10:56:55;;;;;;;3.00;1.00;;;;;;;26.33;52.06;100334.82;125910;1093;22860;-61
2021/08/22 10:59:27;;;;;;;5.20;1.20;;;;;;;26.38;51.97;100330.97;129899;1093;22606;-61
2021/08/22 11:02:11;;;;;;;3.23;1.00;;;;;;;26.46;51.65;100325.92;126083;1093;26283;-63
2021/08/22 11:04:43;;;;;;;3.78;1.10;;;;;;;26.53;50.54;100318.60;125720;1093;22773;-62
2021/08/22 11:07:25;;;;;;;5.30;1.10;;;;;;;26.53;50.37;100316.47;125669;1093;22707;-62
2021/08/22 11:09:56;;;;;;;3.55;1.03;;;;;;;26.55;50.31;100322.37;125928;1093;26325;-63
2021/08/22 11:12:33;;;;;;;2.93;1.00;;;;;;;26.53;50.30;100312.88;125679;1092;22771;-63
2021/08/22 11:15:07;;;;;;;4.93;0.97;;;;;;;26.56;50.67;100295.27;125718;1093;26245;-62
2021/08/22 11:17:48;;;;;;;7.10;1.10;;;;;;;26.64;50.31;100309.48;126312;1093;22744;-62
2021/08/22 11:20:23;;;;;;;5.00;1.17;;;;;;;26.68;49.99;100301.99;125713;1093;24429;-63
2021/08/22 11:23:04;;;;;;;10.40;1.55;;;;;;;26.76;49.82;100299.05;126274;1093;22797;-62
2021/08/22 11:25:36;;;;;;;5.33;1.00;;;;;;;26.81;50.28;100298.81;125950;1093;22777;-62
2021/08/22 11:28:10;;;;;;;3.28;1.00;;;;;;;26.82;49.52;100296.69;125577;1093;26734;-62
2021/08/22 11:30:44;;;;;;;3.53;1.00;;;;;;;26.82;49.43;100303.18;125606;1092;22788;-61
2021/08/22 11:33:16;;;;;;;5.28;0.93;;;;;;;26.80;49.09;100294.42;125868;1092;22800;-62
2021/08/22 11:35:50;;;;;;;3.15;1.10;;;;;;;26.79;49.34;100292.16;125886;1093;22844;-63
2021/08/22 11:38:21;;;;;;;3.93;1.00;;;;;;;26.84;48.95;100299.72;125629;1093;27300;-62
2021/08/22 11:41:03;;;;;;;9.33;1.08;;;;;;;26.90;48.58;100297.38;125525;1093;24436;-62
2021/08/22 11:43:36;;;;;;;3.98;1.03;;;;;;;26.92;48.74;100294.67;125712;1093;26024;-62
2021/08/22 11:46:17;;;;;;;3.35;1.00;;;;;;;26.95;48.75;100297.10;125566;1092;22799;-62
2021/08/22 11:48:50;;;;;;;6.00;1.50;;;;;;;26.99;48.67;100296.66;125997;1093;22770;-63
2021/08/22 11:51:22;;;;;;;3.23;0.98;;;;;;;27.02;48.06;100289.77;125780;1093;22797;-63